createdAt,value
2022-08-16T00:02:24.169Z,22.61
2022-08-16T00:04:51.152Z,22.60
2022-08-16T00:07:17.839Z,22.58
2022-08-16T00:09:45.140Z,22.58
2022-08-16T00:12:12.249Z,22.56
2022-08-16T00:14:44.725Z,22.54
2022-08-16T00:17:18.630Z,22.53
2022-08-16T00:19:46.191Z,22.54
2022-08-16T00:22:15.309Z,22.53
2022-08-16T00:24:43.234Z,22.53
2022-08-16T00:27:11.792Z,22.52
2022-08-16T00:29:38.716Z,22.51
2022-08-16T00:32:06.697Z,22.51
2022-08-16T00:34:43.543Z,22.50
2022-08-16T00:37:12.310Z,22.49
2022-08-16T00:39:43.913Z,22.48
2022-08-16T00:42:10.509Z,22.46
2022-08-16T00:44:37.403Z,22.44
2022-08-16T00:47:08.567Z,22.42
2022-08-16T00:49:39.527Z,22.40
2022-08-16T00:52:29.431Z,22.38
2022-08-16T00:54:56.915Z,22.37
2022-08-16T00:57:23.878Z,22.35
2022-08-16T00:59:58.859Z,22.31
2022-08-16T01:02:30.389Z,22.27
2022-08-16T01:05:09.020Z,22.24
2022-08-16T01:07:51.323Z,22.22
2022-08-16T01:10:21.682Z,22.20
2022-08-16T01:13:00.910Z,22.17
2022-08-16T01:15:27.845Z,22.17
2022-08-16T01:17:57.471Z,22.16
2022-08-16T01:20:30.120Z,22.15
2022-08-16T01:23:21.132Z,22.11
2022-08-16T01:26:00.248Z,22.13
2022-08-16T01:28:38.958Z,22.11
2022-08-16T01:31:13.527Z,22.11
2022-08-16T01:33:40.096Z,22.08
2022-08-16T01:36:11.905Z,22.06
2022-08-16T01:38:49.285Z,22.05
2022-08-16T01:41:23.673Z,22.05
2022-08-16T01:43:53.773Z,22.03
2022-08-16T01:46:39.661Z,21.99
2022-08-16T01:49:22.388Z,21.97
2022-08-16T01:52:08.640Z,21.94
2022-08-16T01:54:54.769Z,21.89
2022-08-16T01:57:22.836Z,21.87
2022-08-16T01:59:54.631Z,21.87
2022-08-16T02:02:27.254Z,21.86
2022-08-16T02:04:55.918Z,21.84
2022-08-16T02:07:24.006Z,21.83
2022-08-16T02:09:58.914Z,21.81
2022-08-16T02:12:39.820Z,21.79
2022-08-16T02:15:16.159Z,21.77
2022-08-16T02:17:43.311Z,21.78
2022-08-16T02:20:11.927Z,21.77
2022-08-16T02:22:39.000Z,21.75
2022-08-16T02:25:09.990Z,21.74
2022-08-16T02:27:36.725Z,21.74
2022-08-16T02:30:06.889Z,21.74
2022-08-16T02:32:49.932Z,21.73
2022-08-16T02:35:18.006Z,21.72
2022-08-16T02:37:52.757Z,21.72
2022-08-16T02:40:20.914Z,21.71
2022-08-16T02:42:50.057Z,21.69
2022-08-16T02:45:18.857Z,21.68
2022-08-16T02:48:00.978Z,21.66
2022-08-16T02:50:55.092Z,21.65
2022-08-16T02:53:23.525Z,21.63
2022-08-16T02:55:50.701Z,21.63
2022-08-16T02:58:17.310Z,21.61
2022-08-16T03:00:45.396Z,21.59
2022-08-16T03:03:17.566Z,21.57
2022-08-16T03:05:50.076Z,21.55
2022-08-16T03:08:50.829Z,21.52
2022-08-16T03:11:16.730Z,21.50
2022-08-16T03:13:56.444Z,21.48
2022-08-16T03:16:36.589Z,21.45
2022-08-16T03:19:06.698Z,21.44
2022-08-16T03:21:38.308Z,21.44
2022-08-16T03:24:06.337Z,21.41
2022-08-16T03:26:52.755Z,21.38
2022-08-16T03:29:19.213Z,21.36
2022-08-16T03:31:45.661Z,21.34
2022-08-16T03:34:18.983Z,21.32
2022-08-16T03:36:45.738Z,21.32
2022-08-16T03:39:14.995Z,21.29
2022-08-16T03:41:50.475Z,21.28
2022-08-16T03:44:44.351Z,21.28
2022-08-16T03:47:04.620Z,21.27
2022-08-16T03:49:37.350Z,21.27
2022-08-16T03:52:04.466Z,21.26
2022-08-16T03:54:30.932Z,21.26
2022-08-16T03:56:58.602Z,21.25
2022-08-16T03:59:25.428Z,21.24
2022-08-16T04:01:56.149Z,21.22
2022-08-16T04:04:33.252Z,21.23
2022-08-16T04:07:02.811Z,21.20
2022-08-16T04:09:35.363Z,21.20
2022-08-16T04:12:04.656Z,21.19
2022-08-16T04:14:46.892Z,21.18
2022-08-16T04:17:15.671Z,21.18
2022-08-16T04:19:45.527Z,21.18
2022-08-16T04:22:12.978Z,21.16
2022-08-16T04:24:39.439Z,21.16
2022-08-16T04:27:08.960Z,21.16
2022-08-16T04:29:44.131Z,21.17
2022-08-16T04:32:13.883Z,21.16
2022-08-16T04:34:40.433Z,21.16
2022-08-16T04:37:07.323Z,21.18
2022-08-16T04:39:45.783Z,21.19
2022-08-16T04:42:14.092Z,21.19
2022-08-16T04:44:53.692Z,21.21
2022-08-16T04:47:24.363Z,21.22
2022-08-16T04:49:52.310Z,21.24
2022-08-16T04:52:33.251Z,21.26
2022-08-16T04:55:11.932Z,21.29
2022-08-16T04:57:39.458Z,21.33
2022-08-16T05:00:32.913Z,21.38
2022-08-16T05:03:01.260Z,21.42
2022-08-16T05:05:32.978Z,21.45
2022-08-16T05:08:29.382Z,21.48
2022-08-16T05:10:50.026Z,21.51
2022-08-16T05:13:18.957Z,21.54
2022-08-16T05:15:47.010Z,21.58
2022-08-16T05:18:17.099Z,21.61
2022-08-16T05:21:01.509Z,21.65
2022-08-16T05:23:35.174Z,21.69
2022-08-16T05:26:02.391Z,21.72
2022-08-16T05:28:37.706Z,21.75
2022-08-16T05:31:06.806Z,21.79
2022-08-16T05:33:33.549Z,21.83
2022-08-16T05:36:00.484Z,21.87
2022-08-16T05:38:34.841Z,21.92
2022-08-16T05:41:06.953Z,21.96
2022-08-16T05:43:43.564Z,22.00
2022-08-16T05:46:30.257Z,22.04
2022-08-16T05:49:08.880Z,22.09
2022-08-16T05:51:40.262Z,22.13
2022-08-16T05:54:11.221Z,22.17
2022-08-16T05:56:39.403Z,22.22
2022-08-16T05:59:06.711Z,22.27
2022-08-16T06:01:38.347Z,22.33
2022-08-16T06:04:13.557Z,22.37
2022-08-16T06:06:56.566Z,22.44
2022-08-16T06:09:25.267Z,22.49
2022-08-16T06:11:52.240Z,22.54
2022-08-16T06:14:18.950Z,22.61
2022-08-16T06:16:50.777Z,22.67
2022-08-16T06:19:17.504Z,22.73
2022-08-16T06:21:44.011Z,22.81
2022-08-16T06:24:53.407Z,22.86
2022-08-16T06:26:57.399Z,22.94
2022-08-16T06:29:24.828Z,23.00
2022-08-16T06:34:55.917Z,23.13
2022-08-16T06:37:04.369Z,23.20
2022-08-16T06:39:31.060Z,23.21
2022-08-16T06:42:00.862Z,23.29
2022-08-16T06:44:27.370Z,23.37
2022-08-16T06:46:54.108Z,23.44
2022-08-16T06:49:20.684Z,23.48
2022-08-16T06:51:48.269Z,23.56
2022-08-16T06:54:16.347Z,23.63
2022-08-16T06:56:43.396Z,23.69
2022-08-16T06:59:10.405Z,23.75
2022-08-16T07:01:43.202Z,23.79
2022-08-16T07:04:12.958Z,23.87
2022-08-16T07:06:59.681Z,23.94
2022-08-16T07:09:29.871Z,23.99
2022-08-16T07:12:03.500Z,24.03
2022-08-16T07:14:31.027Z,24.09
2022-08-16T07:16:58.719Z,24.14
2022-08-16T07:20:03.648Z,24.21
2022-08-16T07:22:38.906Z,24.27
2022-08-16T07:25:02.116Z,24.31
2022-08-16T07:27:28.623Z,24.37
2022-08-16T07:29:58.707Z,24.41
2022-08-16T07:32:29.654Z,24.43
2022-08-16T07:34:58.450Z,24.48
2022-08-16T07:37:24.897Z,24.51
2022-08-16T07:39:51.976Z,24.56
2022-08-16T07:42:35.038Z,24.58
2022-08-16T07:45:03.288Z,24.64
2022-08-16T07:47:34.212Z,24.72
2022-08-16T07:50:05.654Z,24.75
2022-08-16T07:52:34.431Z,24.81
2022-08-16T07:55:00.891Z,24.82
2022-08-16T07:57:27.670Z,24.89
2022-08-16T07:59:57.161Z,24.95
2022-08-16T08:02:27.299Z,24.99
2022-08-16T08:04:55.236Z,25.03
2022-08-16T08:07:21.785Z,25.05
2022-08-16T08:09:53.908Z,25.10
2022-08-16T08:12:32.336Z,25.17
2022-08-16T08:15:04.166Z,25.26
2022-08-16T08:17:42.783Z,25.33
2022-08-16T08:20:13.489Z,25.38
2022-08-16T08:22:52.219Z,25.43
2022-08-16T08:25:19.154Z,25.49
2022-08-16T08:27:46.054Z,25.52
2022-08-16T08:30:51.296Z,25.53
2022-08-16T08:33:00.908Z,25.59
2022-08-16T08:35:28.486Z,25.66
2022-08-16T08:37:56.425Z,25.67
2022-08-16T08:40:24.296Z,25.73
2022-08-16T08:42:51.217Z,25.79
2022-08-16T08:45:46.958Z,25.86
2022-08-16T08:48:11.566Z,25.93
2022-08-16T08:50:58.461Z,25.96
2022-08-16T08:53:30.610Z,25.99
2022-08-16T08:55:59.025Z,26.05
2022-08-16T08:58:26.048Z,26.09
2022-08-16T09:01:01.685Z,26.13
2022-08-16T09:03:28.794Z,26.17
2022-08-16T09:05:59.205Z,26.21
2022-08-16T09:08:27.370Z,26.24
2022-08-16T09:11:02.525Z,26.31
2022-08-16T09:13:32.701Z,26.36
2022-08-16T09:15:59.566Z,26.40
2022-08-16T09:18:35.668Z,26.46
2022-08-16T09:21:04.408Z,26.52
2022-08-16T09:23:36.272Z,26.56
2022-08-16T09:26:44.183Z,26.60
2022-08-16T09:29:15.960Z,26.61
2022-08-16T09:31:41.838Z,26.66
2022-08-16T09:34:09.227Z,26.71
2022-08-16T09:36:37.322Z,26.74
2022-08-16T09:39:16.292Z,26.78
2022-08-16T09:41:43.767Z,26.79
2022-08-16T09:45:12.703Z,26.81
2022-08-16T09:47:10.908Z,26.84
2022-08-16T09:49:37.553Z,26.92
2022-08-16T09:52:09.449Z,26.91
2022-08-16T09:54:36.217Z,27.02
2022-08-16T09:57:02.962Z,27.06
2022-08-16T09:59:30.493Z,27.13
2022-08-16T10:01:57.266Z,27.16
2022-08-16T10:04:31.143Z,27.23
2022-08-16T10:07:11.781Z,27.27
2022-08-16T10:09:53.818Z,27.33
2022-08-16T10:12:44.452Z,27.34
2022-08-16T10:15:17.787Z,27.33
2022-08-16T10:18:00.311Z,27.33
2022-08-16T10:20:28.933Z,27.47
2022-08-16T10:23:05.436Z,27.50
2022-08-16T10:27:19.575Z,27.53
2022-08-16T10:28:29.301Z,27.57
2022-08-16T10:30:58.912Z,27.61
2022-08-16T10:33:27.156Z,27.68
2022-08-16T10:35:57.664Z,27.67
2022-08-16T10:38:28.341Z,27.74
2022-08-16T10:40:54.809Z,27.79
2022-08-16T10:43:21.375Z,27.80
2022-08-16T10:46:00.109Z,27.81
2022-08-16T10:48:28.782Z,27.82
2022-08-16T10:50:59.504Z,27.86
2022-08-16T10:53:32.819Z,27.89
2022-08-16T10:56:44.287Z,27.93
2022-08-16T10:58:57.658Z,27.97
2022-08-16T11:02:21.630Z,28.02
2022-08-16T11:10:20.906Z,28.14
2022-08-16T11:12:52.939Z,28.17
2022-08-16T11:15:20.239Z,28.15
2022-08-16T11:18:21.556Z,28.22
2022-08-16T11:20:41.665Z,28.24
2022-08-16T11:23:09.843Z,28.27
2022-08-16T11:31:11.061Z,28.29
2022-08-16T11:33:55.644Z,28.32
2022-08-16T11:36:25.031Z,28.39
2022-08-16T11:38:57.811Z,28.45
2022-08-16T11:41:25.984Z,28.43
2022-08-16T11:43:55.802Z,28.48
2022-08-16T11:46:43.442Z,28.59
2022-08-16T11:49:13.251Z,28.69
2022-08-16T11:51:43.793Z,28.74
2022-08-16T11:54:20.816Z,28.81
2022-08-16T11:56:56.508Z,28.82
2022-08-16T11:59:24.459Z,28.91
2022-08-16T12:01:59.796Z,28.94
2022-08-16T12:04:31.246Z,28.93
2022-08-16T12:06:58.674Z,28.98
2022-08-16T12:09:29.502Z,29.06
2022-08-16T12:11:57.492Z,29.15
2022-08-16T12:14:24.181Z,29.25
2022-08-16T12:16:55.443Z,29.33
2022-08-16T12:19:33.649Z,29.43
2022-08-16T12:22:00.609Z,29.50
2022-08-16T12:24:27.949Z,29.52
2022-08-16T12:26:54.887Z,29.55
2022-08-16T12:29:21.905Z,29.56
2022-08-16T12:32:00.597Z,29.64
2022-08-16T12:34:36.893Z,29.66
2022-08-16T12:37:08.929Z,29.74
2022-08-16T12:39:38.002Z,29.78
2022-08-16T12:42:13.611Z,29.83
2022-08-16T12:44:43.351Z,29.89
2022-08-16T12:47:28.390Z,30.04
2022-08-16T12:49:54.893Z,30.05
2022-08-16T12:52:33.986Z,30.13
2022-08-16T12:55:02.458Z,30.20
2022-08-16T12:57:36.604Z,30.33
2022-08-16T13:00:07.842Z,30.41
2022-08-16T13:02:36.646Z,30.48
2022-08-16T13:05:04.354Z,30.48
2022-08-16T13:07:42.462Z,30.49
2022-08-16T13:10:21.010Z,30.48
2022-08-16T13:12:58.436Z,30.44
2022-08-16T13:15:28.161Z,30.45
2022-08-16T13:17:54.800Z,30.44
2022-08-16T13:20:23.738Z,30.42
2022-08-16T13:22:54.182Z,30.47
2022-08-16T13:25:23.483Z,30.48
2022-08-16T13:28:02.179Z,30.53
2022-08-16T13:30:35.762Z,30.57
2022-08-16T13:33:11.249Z,30.58
2022-08-16T13:35:42.789Z,30.61
2022-08-16T13:38:09.794Z,30.64
2022-08-16T13:40:37.595Z,30.66
2022-08-16T13:43:04.260Z,30.79
2022-08-16T13:45:36.124Z,30.86
2022-08-16T13:48:05.427Z,30.85
2022-08-16T13:50:49.647Z,30.89
2022-08-16T13:53:18.653Z,30.92
2022-08-16T13:55:59.097Z,30.93
2022-08-16T13:58:34.891Z,30.98
2022-08-16T14:01:03.257Z,30.94
2022-08-16T14:03:29.725Z,31.02
2022-08-16T14:05:56.748Z,31.06
2022-08-16T14:08:27.161Z,31.13
2022-08-16T14:10:54.232Z,31.08
2022-08-16T14:13:21.721Z,31.11
2022-08-16T14:15:48.707Z,31.16
2022-08-16T14:18:20.481Z,31.17
2022-08-16T14:20:48.406Z,31.25
2022-08-16T14:23:15.489Z,31.26
2022-08-16T14:25:42.054Z,31.30
2022-08-16T14:28:09.768Z,31.29
2022-08-16T14:30:37.929Z,31.26
2022-08-16T14:33:07.025Z,31.25
2022-08-16T14:35:48.511Z,31.19
2022-08-16T14:38:18.195Z,31.12
2022-08-16T14:40:51.073Z,31.07
2022-08-16T14:43:21.994Z,31.02
2022-08-16T14:45:50.295Z,30.92
2022-08-16T14:48:21.501Z,30.87
2022-08-16T14:50:51.931Z,30.94
2022-08-16T14:53:18.370Z,30.99
2022-08-16T14:55:45.161Z,31.02
2022-08-16T14:58:19.368Z,31.00
2022-08-16T15:00:47.731Z,31.03
2022-08-16T15:03:17.304Z,31.02
2022-08-16T15:05:44.222Z,31.05
2022-08-16T15:08:10.861Z,31.13
2022-08-16T15:10:39.096Z,31.13
2022-08-16T15:13:12.352Z,31.17
2022-08-16T15:15:38.938Z,31.23
2022-08-16T15:18:11.732Z,31.29
2022-08-16T15:20:39.089Z,31.35
2022-08-16T15:23:08.291Z,31.34
2022-08-16T15:25:43.138Z,31.37
2022-08-16T15:28:30.592Z,31.37
2022-08-16T15:31:00.846Z,31.39
2022-08-16T15:33:32.249Z,31.41
2022-08-16T15:35:59.711Z,31.41
2022-08-16T15:38:56.783Z,31.43
2022-08-16T15:41:31.499Z,31.44
2022-08-16T15:44:05.338Z,31.49
2022-08-16T15:46:56.761Z,31.50
2022-08-16T15:49:34.662Z,31.56
2022-08-16T15:52:29.138Z,31.57
2022-08-16T15:54:58.563Z,31.62
2022-08-16T15:57:27.661Z,31.62
2022-08-16T15:59:55.967Z,31.66
2022-08-16T16:02:31.092Z,31.72
2022-08-16T16:05:03.388Z,31.77
2022-08-16T16:07:33.284Z,31.82
2022-08-16T16:10:00.983Z,31.83
2022-08-16T16:15:17.646Z,31.96
2022-08-16T16:17:44.118Z,31.98
2022-08-16T16:20:17.830Z,32.01
2022-08-16T16:22:44.553Z,32.03
2022-08-16T16:25:11.408Z,32.01
2022-08-16T16:27:37.996Z,32.00
2022-08-16T16:30:32.488Z,32.02
2022-08-16T16:32:51.956Z,32.00
2022-08-16T16:35:18.553Z,32.25
2022-08-16T16:37:45.088Z,32.18
2022-08-16T16:40:12.778Z,32.12
2022-08-16T16:42:40.916Z,32.07
2022-08-16T16:45:11.124Z,31.97
2022-08-16T16:47:41.631Z,31.88
2022-08-16T16:50:09.761Z,31.80
2022-08-16T16:52:44.774Z,31.69
2022-08-16T16:55:14.707Z,31.57
2022-08-16T16:58:01.016Z,31.45
2022-08-16T17:00:38.115Z,31.33
2022-08-16T17:03:06.315Z,31.19
2022-08-16T17:05:57.427Z,31.09
2022-08-16T17:08:30.562Z,30.99
2022-08-16T17:10:57.617Z,30.89
2022-08-16T17:13:24.457Z,30.82
2022-08-16T17:15:52.463Z,30.75
2022-08-16T17:19:17.558Z,30.69
2022-08-16T17:21:07.127Z,30.63
2022-08-16T17:23:58.389Z,30.57
2022-08-16T17:26:21.196Z,30.52
2022-08-16T17:28:59.918Z,30.47
2022-08-16T17:31:38.463Z,30.44
2022-08-16T17:34:29.225Z,30.41
2022-08-16T17:36:54.533Z,30.37
2022-08-16T17:39:21.230Z,30.35
2022-08-16T17:41:51.080Z,30.30
2022-08-16T17:44:19.208Z,30.25
2022-08-16T17:46:52.258Z,30.21
2022-08-16T17:49:19.419Z,30.17
2022-08-16T17:51:45.895Z,30.13
2022-08-16T17:54:20.254Z,30.09
2022-08-16T17:57:00.833Z,30.05
2022-08-16T17:59:28.164Z,30.01
2022-08-16T18:01:55.644Z,29.98
2022-08-16T18:04:48.958Z,29.94
2022-08-16T18:07:08.660Z,29.88
2022-08-16T18:09:36.833Z,29.85
2022-08-16T18:12:54.784Z,29.81
2022-08-16T18:15:10.344Z,29.75
2022-08-16T18:17:36.764Z,29.72
2022-08-16T18:20:28.937Z,29.69
2022-08-16T18:23:03.053Z,29.64
2022-08-16T18:25:29.494Z,29.61
2022-08-16T18:27:56.072Z,29.57
2022-08-16T18:30:22.502Z,29.54
2022-08-16T18:32:50.409Z,29.49
2022-08-16T18:35:18.321Z,29.47
2022-08-16T18:37:44.866Z,29.44
2022-08-16T18:40:12.498Z,29.40
2022-08-16T18:42:39.086Z,29.36
2022-08-16T18:45:06.207Z,29.33
2022-08-16T18:47:32.658Z,29.30
2022-08-16T18:50:00.405Z,29.28
2022-08-16T18:52:26.851Z,29.25
2022-08-16T18:55:01.451Z,29.22
2022-08-16T18:57:29.635Z,29.18
2022-08-16T18:59:56.094Z,29.14
2022-08-16T19:02:57.170Z,29.09
2022-08-16T19:05:24.330Z,29.07
2022-08-16T19:07:50.954Z,29.03
2022-08-16T19:10:18.136Z,28.99
2022-08-16T19:12:44.638Z,28.94
2022-08-16T19:15:19.237Z,28.90
2022-08-16T19:17:45.935Z,28.87
2022-08-16T19:20:14.308Z,28.81
2022-08-16T19:25:49.044Z,28.72
2022-08-16T19:28:48.903Z,28.67
2022-08-16T19:31:19.781Z,28.58
2022-08-16T19:33:54.457Z,28.53
2022-08-16T19:36:42.325Z,28.49
2022-08-16T19:39:13.584Z,28.43
2022-08-16T19:41:53.251Z,28.38
2022-08-16T19:44:20.481Z,28.33
2022-08-16T19:46:48.606Z,28.25
2022-08-16T19:49:16.507Z,28.19
2022-08-16T19:51:44.855Z,28.14
2022-08-16T19:54:11.304Z,28.08
2022-08-16T19:56:37.888Z,28.03
2022-08-16T19:59:21.912Z,27.97
2022-08-16T20:01:51.786Z,27.89
2022-08-16T20:04:18.675Z,27.85
2022-08-16T20:06:45.173Z,27.79
2022-08-16T20:09:14.846Z,27.72
2022-08-16T20:11:43.573Z,27.69
2022-08-16T20:14:10.021Z,27.65
2022-08-16T20:16:36.459Z,27.60
2022-08-16T20:19:03.866Z,27.54
2022-08-16T20:21:30.453Z,27.50
2022-08-16T20:24:15.870Z,27.44
2022-08-16T20:26:43.375Z,27.40
2022-08-16T20:29:10.184Z,27.34
2022-08-16T20:31:36.611Z,27.28
2022-08-16T20:34:03.069Z,27.24
2022-08-16T20:36:29.837Z,27.18
2022-08-16T20:38:57.762Z,27.12
2022-08-16T20:41:24.218Z,27.08
2022-08-16T20:43:50.667Z,27.04
2022-08-16T20:46:21.545Z,27.00
2022-08-16T20:48:48.033Z,26.94
2022-08-16T20:51:14.551Z,26.90
2022-08-16T20:53:41.747Z,26.86
2022-08-16T20:56:09.948Z,26.81
2022-08-16T20:58:37.536Z,26.76
2022-08-16T21:01:05.550Z,26.70
2022-08-16T21:03:32.118Z,26.66
2022-08-16T21:05:58.763Z,26.62
2022-08-16T21:08:50.432Z,26.58
2022-08-16T21:11:11.836Z,26.53
2022-08-16T21:13:42.632Z,26.49
2022-08-16T21:16:10.168Z,26.42
2022-08-16T21:18:36.610Z,26.37
2022-08-16T21:21:03.087Z,26.32
2022-08-16T21:23:30.058Z,26.26
2022-08-16T21:25:58.686Z,26.21
2022-08-16T21:28:41.959Z,26.15
2022-08-16T21:31:14.679Z,26.12
2022-08-16T21:33:42.522Z,26.08
2022-08-16T21:36:09.603Z,26.04
2022-08-16T21:38:36.082Z,26.00
2022-08-16T21:41:04.439Z,25.95
2022-08-16T21:43:33.118Z,25.91
2022-08-16T21:46:04.145Z,25.87
2022-08-16T21:48:33.860Z,25.82
2022-08-16T21:51:07.491Z,25.75
2022-08-16T21:53:34.624Z,25.73
2022-08-16T21:56:01.790Z,25.66
2022-08-16T21:58:28.446Z,25.64
2022-08-16T22:00:55.014Z,25.62
2022-08-16T22:03:21.692Z,25.58
2022-08-16T22:06:12.575Z,25.55
2022-08-16T22:08:35.825Z,25.50
2022-08-16T22:11:16.728Z,25.46
2022-08-16T22:13:43.206Z,25.44
2022-08-16T22:16:17.955Z,25.38
2022-08-16T22:18:52.464Z,25.34
2022-08-16T22:21:19.314Z,25.33
2022-08-16T22:23:45.750Z,25.30
2022-08-16T22:26:29.118Z,25.28
2022-08-16T22:28:57.707Z,25.25
2022-08-16T22:31:24.143Z,25.24
2022-08-16T22:33:50.589Z,25.20
2022-08-16T22:36:17.023Z,25.14
2022-08-16T22:38:53.516Z,25.12
2022-08-16T22:41:23.266Z,25.07
2022-08-16T22:43:49.725Z,25.02
2022-08-16T22:46:16.167Z,25.01
2022-08-16T22:48:43.093Z,24.98
2022-08-16T22:51:09.542Z,24.95
2022-08-16T22:53:37.418Z,24.92
2022-08-16T22:56:04.381Z,24.87
2022-08-16T22:58:34.225Z,24.82
2022-08-16T23:01:04.432Z,24.77
2022-08-16T23:03:30.991Z,24.73
2022-08-16T23:06:01.325Z,24.67
2022-08-16T23:08:38.676Z,24.61
2022-08-16T23:11:10.352Z,24.57
2022-08-16T23:13:37.157Z,24.54
2022-08-16T23:16:11.184Z,24.51
2022-08-16T23:18:38.944Z,24.50
2022-08-16T23:21:09.411Z,24.45
2022-08-16T23:23:37.156Z,24.40
2022-08-16T23:26:47.263Z,24.35
2022-08-16T23:28:50.993Z,24.31
2022-08-16T23:31:17.554Z,24.30
2022-08-16T23:33:44.810Z,24.29
2022-08-16T23:36:11.469Z,24.28
2022-08-16T23:38:39.481Z,24.26
2022-08-16T23:41:09.102Z,24.24
2022-08-16T23:43:43.081Z,24.23
2022-08-16T23:46:16.809Z,24.22
2022-08-16T23:49:57.261Z,24.19
2022-08-16T23:51:30.787Z,24.16
2022-08-16T23:53:57.243Z,24.12
2022-08-16T23:56:23.706Z,24.08
2022-08-16T23:58:54.382Z,24.03
